sensor_id;sensor_type;location;lat;lon;timestamp;pressure;altitude;pressure_sealevel;temperature;humidity
24788;BME280;12883;52.662;5.196;2023-04-06T00:00:45;101905.03;;;7.40;100.00
24788;BME280;12883;52.662;5.196;2023-04-06T00:03:11;101864.16;;;7.26;100.00
24788;BME280;12883;52.662;5.196;2023-04-06T00:05:36;101820.97;;;7.10;100.00
24788;BME280;12883;52.662;5.196;2023-04-06T00:08:02;101880.28;;;7.41;100.00
24788;BME280;12883;52.662;5.196;2023-04-06T00:10:27;101860.88;;;7.32;100.00
24788;BME280;12883;52.662;5.196;2023-04-06T00:12:53;101833.69;;;7.14;100.00
24788;BME280;12883;52.662;5.196;2023-04-06T00:15:19;101864.50;;;7.31;100.00
24788;BME280;12883;52.662;5.196;2023-04-06T00:17:45;101813.13;;;7.00;100.00
24788;BME280;12883;52.662;5.196;2023-04-06T00:20:11;101865.03;;;7.35;100.00
24788;BME280;12883;52.662;5.196;2023-04-06T00:22:36;101862.25;;;7.36;100.00
24788;BME280;12883;52.662;5.196;2023-04-06T00:25:01;101863.38;;;7.34;100.00
24788;BME280;12883;52.662;5.196;2023-04-06T00:27:27;101864.22;;;7.34;100.00
24788;BME280;12883;52.662;5.196;2023-04-06T00:29:52;101820.25;;;7.08;100.00
24788;BME280;12883;52.662;5.196;2023-04-06T00:32:17;101852.16;;;7.32;100.00
24788;BME280;12883;52.662;5.196;2023-04-06T00:34:43;101848.38;;;7.34;100.00
24788;BME280;12883;52.662;5.196;2023-04-06T00:37:08;101844.75;;;7.35;100.00
24788;BME280;12883;52.662;5.196;2023-04-06T00:39:34;101845.03;;;7.32;100.00
24788;BME280;12883;52.662;5.196;2023-04-06T00:41:59;101837.81;;;7.34;100.00
24788;BME280;12883;52.662;5.196;2023-04-06T00:44:25;101826.97;;;7.20;100.00
24788;BME280;12883;52.662;5.196;2023-04-06T00:46:51;101797.69;;;7.05;100.00
24788;BME280;12883;52.662;5.196;2023-04-06T00:49:17;101830.72;;;7.35;100.00
24788;BME280;12883;52.662;5.196;2023-04-06T00:51:43;101852.31;;;7.30;100.00
24788;BME280;12883;52.662;5.196;2023-04-06T00:54:08;101830.56;;;7.36;100.00
24788;BME280;12883;52.662;5.196;2023-04-06T00:56:34;101822.28;;;7.31;100.00
24788;BME280;12883;52.662;5.196;2023-04-06T00:59:00;101810.59;;;7.34;100.00
24788;BME280;12883;52.662;5.196;2023-04-06T01:01:25;101812.56;;;7.32;100.00
24788;BME280;12883;52.662;5.196;2023-04-06T01:03:51;101835.91;;;7.44;100.00
24788;BME280;12883;52.662;5.196;2023-04-06T01:06:16;101805.97;;;7.36;100.00
24788;BME280;12883;52.662;5.196;2023-04-06T01:08:42;101773.66;;;7.16;100.00
24788;BME280;12883;52.662;5.196;2023-04-06T01:11:07;101799.22;;;7.33;100.00
24788;BME280;12883;52.662;5.196;2023-04-06T01:13:33;101796.44;;;7.43;100.00
24788;BME280;12883;52.662;5.196;2023-04-06T01:15:58;101797.63;;;7.40;100.00
24788;BME280;12883;52.662;5.196;2023-04-06T01:18:28;101792.63;;;7.37;100.00
24788;BME280;12883;52.662;5.196;2023-04-06T01:20:54;101797.66;;;7.48;100.00
24788;BME280;12883;52.662;5.196;2023-04-06T01:23:19;101779.13;;;7.40;100.00
24788;BME280;12883;52.662;5.196;2023-04-06T01:25:45;101789.41;;;7.51;100.00
24788;BME280;12883;52.662;5.196;2023-04-06T01:28:10;101745.06;;;7.29;100.00
24788;BME280;12883;52.662;5.196;2023-04-06T01:30:35;101781.50;;;7.51;100.00
24788;BME280;12883;52.662;5.196;2023-04-06T01:33:01;101781.22;;;7.54;100.00
24788;BME280;12883;52.662;5.196;2023-04-06T01:35:27;101776.84;;;7.45;100.00
24788;BME280;12883;52.662;5.196;2023-04-06T01:37:53;101756.31;;;7.39;100.00
24788;BME280;12883;52.662;5.196;2023-04-06T01:40:19;101767.31;;;7.52;100.00
24788;BME280;12883;52.662;5.196;2023-04-06T01:42:44;101775.97;;;7.62;100.00
24788;BME280;12883;52.662;5.196;2023-04-06T01:45:10;101768.34;;;7.59;100.00
24788;BME280;12883;52.662;5.196;2023-04-06T01:47:35;101769.13;;;7.52;100.00
24788;BME280;12883;52.662;5.196;2023-04-06T01:50:01;101770.00;;;7.60;100.00
24788;BME280;12883;52.662;5.196;2023-04-06T01:52:27;101759.59;;;7.59;100.00
24788;BME280;12883;52.662;5.196;2023-04-06T01:54:53;101769.53;;;7.65;100.00
24788;BME280;12883;52.662;5.196;2023-04-06T01:57:18;101729.63;;;7.42;100.00
24788;BME280;12883;52.662;5.196;2023-04-06T01:59:43;101760.41;;;7.59;100.00
24788;BME280;12883;52.662;5.196;2023-04-06T02:02:09;101722.69;;;7.41;100.00
24788;BME280;12883;52.662;5.196;2023-04-06T02:04:34;101748.94;;;7.68;100.00
24788;BME280;12883;52.662;5.196;2023-04-06T02:07:00;101749.91;;;7.67;100.00
24788;BME280;12883;52.662;5.196;2023-04-06T02:09:25;101751.56;;;7.68;100.00
24788;BME280;12883;52.662;5.196;2023-04-06T02:11:50;101751.88;;;7.65;100.00
24788;BME280;12883;52.662;5.196;2023-04-06T02:14:16;101739.47;;;7.58;100.00
24788;BME280;12883;52.662;5.196;2023-04-06T02:16:41;101749.56;;;7.62;100.00
24788;BME280;12883;52.662;5.196;2023-04-06T02:19:06;101742.50;;;7.71;100.00
24788;BME280;12883;52.662;5.196;2023-04-06T02:21:32;101735.09;;;7.74;100.00
24788;BME280;12883;52.662;5.196;2023-04-06T02:23:57;101737.03;;;7.72;100.00
24788;BME280;12883;52.662;5.196;2023-04-06T02:26:22;101733.13;;;7.76;100.00
24788;BME280;12883;52.662;5.196;2023-04-06T02:28:48;101731.00;;;7.80;100.00
24788;BME280;12883;52.662;5.196;2023-04-06T02:31:14;101726.66;;;7.71;100.00
24788;BME280;12883;52.662;5.196;2023-04-06T02:33:40;101712.97;;;7.75;100.00
24788;BME280;12883;52.662;5.196;2023-04-06T02:36:06;101693.41;;;7.60;100.00
24788;BME280;12883;52.662;5.196;2023-04-06T02:38:31;101722.56;;;7.76;100.00
24788;BME280;12883;52.662;5.196;2023-04-06T02:40:56;101717.63;;;7.81;100.00
24788;BME280;12883;52.662;5.196;2023-04-06T02:43:22;101724.06;;;7.79;100.00
24788;BME280;12883;52.662;5.196;2023-04-06T02:45:47;101725.84;;;7.78;100.00
24788;BME280;12883;52.662;5.196;2023-04-06T02:48:13;101665.66;;;7.48;100.00
24788;BME280;12883;52.662;5.196;2023-04-06T02:50:38;101706.38;;;7.79;100.00
24788;BME280;12883;52.662;5.196;2023-04-06T02:53:04;101701.59;;;7.83;100.00
24788;BME280;12883;52.662;5.196;2023-04-06T02:55:29;101702.59;;;7.82;100.00
24788;BME280;12883;52.662;5.196;2023-04-06T02:57:55;101695.69;;;7.89;100.00
24788;BME280;12883;52.662;5.196;2023-04-06T03:00:20;101682.06;;;7.68;100.00
24788;BME280;12883;52.662;5.196;2023-04-06T03:02:46;101696.50;;;7.89;100.00
24788;BME280;12883;52.662;5.196;2023-04-06T03:05:11;101637.41;;;7.49;100.00
24788;BME280;12883;52.662;5.196;2023-04-06T03:07:37;101704.94;;;7.85;100.00
24788;BME280;12883;52.662;5.196;2023-04-06T03:10:02;101679.44;;;7.76;100.00
24788;BME280;12883;52.662;5.196;2023-04-06T03:12:27;101677.94;;;7.73;100.00
24788;BME280;12883;52.662;5.196;2023-04-06T03:14:53;101687.72;;;7.81;100.00
24788;BME280;12883;52.662;5.196;2023-04-06T03:17:18;101693.53;;;7.84;100.00
24788;BME280;12883;52.662;5.196;2023-04-06T03:19:43;101697.81;;;7.85;100.00
24788;BME280;12883;52.662;5.196;2023-04-06T03:22:09;101699.81;;;7.91;100.00
24788;BME280;12883;52.662;5.196;2023-04-06T03:24:34;101688.22;;;7.84;100.00
24788;BME280;12883;52.662;5.196;2023-04-06T03:27:00;101692.88;;;7.90;100.00
24788;BME280;12883;52.662;5.196;2023-04-06T03:29:25;101691.53;;;7.86;100.00
24788;BME280;12883;52.662;5.196;2023-04-06T03:31:52;101683.47;;;7.88;100.00
24788;BME280;12883;52.662;5.196;2023-04-06T03:34:17;101681.97;;;7.93;100.00
24788;BME280;12883;52.662;5.196;2023-04-06T03:36:42;101682.31;;;7.90;100.00
24788;BME280;12883;52.662;5.196;2023-04-06T03:39:08;101674.88;;;7.94;100.00
24788;BME280;12883;52.662;5.196;2023-04-06T03:41:33;101674.53;;;7.89;100.00
24788;BME280;12883;52.662;5.196;2023-04-06T03:43:59;101670.41;;;7.94;100.00
24788;BME280;12883;52.662;5.196;2023-04-06T03:46:24;101625.78;;;7.67;100.00
24788;BME280;12883;52.662;5.196;2023-04-06T03:48:50;101669.75;;;7.92;100.00
24788;BME280;12883;52.662;5.196;2023-04-06T03:51:15;101658.38;;;7.92;100.00
24788;BME280;12883;52.662;5.196;2023-04-06T03:53:40;101658.03;;;7.87;100.00
24788;BME280;12883;52.662;5.196;2023-04-06T03:56:06;101654.06;;;7.91;100.00
24788;BME280;12883;52.662;5.196;2023-04-06T03:58:31;101650.75;;;7.89;100.00
24788;BME280;12883;52.662;5.196;2023-04-06T04:00:56;101655.56;;;7.93;100.00
24788;BME280;12883;52.662;5.196;2023-04-06T04:03:22;101661.84;;;7.92;100.00
24788;BME280;12883;52.662;5.196;2023-04-06T04:05:49;101650.44;;;7.92;100.00
24788;BME280;12883;52.662;5.196;2023-04-06T04:08:15;101651.75;;;7.96;100.00
24788;BME280;12883;52.662;5.196;2023-04-06T04:10:40;101652.25;;;7.91;100.00
24788;BME280;12883;52.662;5.196;2023-04-06T04:13:06;101645.63;;;7.87;100.00
24788;BME280;12883;52.662;5.196;2023-04-06T04:15:31;101645.81;;;7.94;100.00
24788;BME280;12883;52.662;5.196;2023-04-06T04:17:56;101652.41;;;7.90;100.00
24788;BME280;12883;52.662;5.196;2023-04-06T04:20:22;101637.25;;;7.92;100.00
24788;BME280;12883;52.662;5.196;2023-04-06T04:22:47;101643.84;;;7.96;100.00
24788;BME280;12883;52.662;5.196;2023-04-06T04:25:13;101642.69;;;7.90;100.00
24788;BME280;12883;52.662;5.196;2023-04-06T04:27:38;101598.66;;;7.57;100.00
24788;BME280;12883;52.662;5.196;2023-04-06T04:30:05;101631.72;;;7.69;100.00
24788;BME280;12883;52.662;5.196;2023-04-06T04:32:30;101614.25;;;7.76;100.00
24788;BME280;12883;52.662;5.196;2023-04-06T04:34:56;101633.25;;;7.80;100.00
24788;BME280;12883;52.662;5.196;2023-04-06T04:37:21;101641.66;;;7.75;100.00
24788;BME280;12883;52.662;5.196;2023-04-06T04:39:46;101642.81;;;7.81;100.00
24788;BME280;12883;52.662;5.196;2023-04-06T04:42:13;101634.72;;;7.74;100.00
24788;BME280;12883;52.662;5.196;2023-04-06T04:44:38;101642.28;;;7.69;100.00
24788;BME280;12883;52.662;5.196;2023-04-06T04:47:04;101646.25;;;7.73;100.00
24788;BME280;12883;52.662;5.196;2023-04-06T04:49:30;101639.50;;;7.71;100.00
24788;BME280;12883;52.662;5.196;2023-04-06T04:51:55;101637.94;;;7.60;100.00
24788;BME280;12883;52.662;5.196;2023-04-06T04:54:21;101634.00;;;7.64;100.00
24788;BME280;12883;52.662;5.196;2023-04-06T04:56:46;101629.34;;;7.58;100.00
24788;BME280;12883;52.662;5.196;2023-04-06T04:59:11;101641.78;;;7.66;100.00
24788;BME280;12883;52.662;5.196;2023-04-06T05:01:37;101579.94;;;7.35;100.00
24788;BME280;12883;52.662;5.196;2023-04-06T05:04:02;101615.38;;;7.66;100.00
24788;BME280;12883;52.662;5.196;2023-04-06T05:06:27;101634.88;;;7.81;100.00
24788;BME280;12883;52.662;5.196;2023-04-06T05:08:53;101627.09;;;7.71;100.00
24788;BME280;12883;52.662;5.196;2023-04-06T05:11:18;101634.72;;;7.74;100.00
24788;BME280;12883;52.662;5.196;2023-04-06T05:13:44;101629.59;;;7.81;100.00
24788;BME280;12883;52.662;5.196;2023-04-06T05:16:09;101632.06;;;7.74;100.00
24788;BME280;12883;52.662;5.196;2023-04-06T05:18:35;101620.84;;;7.80;100.00
24788;BME280;12883;52.662;5.196;2023-04-06T05:21:00;101604.97;;;7.72;100.00
24788;BME280;12883;52.662;5.196;2023-04-06T05:23:26;101620.88;;;7.88;100.00
24788;BME280;12883;52.662;5.196;2023-04-06T05:25:51;101620.53;;;7.91;100.00
24788;BME280;12883;52.662;5.196;2023-04-06T05:28:17;101618.91;;;7.90;100.00
24788;BME280;12883;52.662;5.196;2023-04-06T05:30:44;101617.56;;;7.94;100.00
24788;BME280;12883;52.662;5.196;2023-04-06T05:33:10;101603.69;;;7.84;100.00
24788;BME280;12883;52.662;5.196;2023-04-06T05:35:36;101618.91;;;7.90;100.00
24788;BME280;12883;52.662;5.196;2023-04-06T05:38:01;101615.41;;;7.90;100.00
24788;BME280;12883;52.662;5.196;2023-04-06T05:40:26;101596.91;;;7.90;100.00
24788;BME280;12883;52.662;5.196;2023-04-06T05:42:52;101617.28;;;8.05;100.00
24788;BME280;12883;52.662;5.196;2023-04-06T05:45:17;101610.84;;;8.08;100.00
24788;BME280;12883;52.662;5.196;2023-04-06T05:47:44;101601.06;;;8.08;100.00
24788;BME280;12883;52.662;5.196;2023-04-06T05:50:14;101581.59;;;8.09;100.00
24788;BME280;12883;52.662;5.196;2023-04-06T05:52:39;101597.81;;;8.22;100.00
24788;BME280;12883;52.662;5.196;2023-04-06T05:55:08;101558.44;;;7.87;100.00
24788;BME280;12883;52.662;5.196;2023-04-06T05:57:34;101594.69;;;8.27;100.00
24788;BME280;12883;52.662;5.196;2023-04-06T05:59:59;101581.78;;;8.32;100.00
24788;BME280;12883;52.662;5.196;2023-04-06T06:02:25;101599.16;;;8.26;100.00
24788;BME280;12883;52.662;5.196;2023-04-06T06:04:50;101595.69;;;8.34;100.00
24788;BME280;12883;52.662;5.196;2023-04-06T06:07:16;101580.63;;;8.26;100.00
24788;BME280;12883;52.662;5.196;2023-04-06T06:09:41;101596.19;;;8.37;100.00
24788;BME280;12883;52.662;5.196;2023-04-06T06:12:07;101599.47;;;8.47;100.00
24788;BME280;12883;52.662;5.196;2023-04-06T06:14:32;101600.13;;;8.49;100.00
24788;BME280;12883;52.662;5.196;2023-04-06T06:16:58;101587.91;;;8.48;100.00
24788;BME280;12883;52.662;5.196;2023-04-06T06:19:23;101592.22;;;8.57;100.00
24788;BME280;12883;52.662;5.196;2023-04-06T06:21:49;101576.00;;;8.44;100.00
24788;BME280;12883;52.662;5.196;2023-04-06T06:24:14;101602.78;;;8.57;100.00
24788;BME280;12883;52.662;5.196;2023-04-06T06:26:39;101597.16;;;8.60;100.00
24788;BME280;12883;52.662;5.196;2023-04-06T06:29:06;101587.72;;;8.58;100.00
24788;BME280;12883;52.662;5.196;2023-04-06T06:31:31;101601.47;;;8.53;100.00
24788;BME280;12883;52.662;5.196;2023-04-06T06:33:57;101591.84;;;8.60;100.00
24788;BME280;12883;52.662;5.196;2023-04-06T06:36:22;101599.97;;;8.59;100.00
24788;BME280;12883;52.662;5.196;2023-04-06T06:38:48;101590.53;;;8.56;100.00
24788;BME280;12883;52.662;5.196;2023-04-06T06:41:13;101597.81;;;8.54;100.00
24788;BME280;12883;52.662;5.196;2023-04-06T06:43:38;101594.16;;;8.55;100.00
24788;BME280;12883;52.662;5.196;2023-04-06T06:46:04;101581.94;;;8.54;100.00
24788;BME280;12883;52.662;5.196;2023-04-06T06:48:30;101594.84;;;8.57;100.00
24788;BME280;12883;52.662;5.196;2023-04-06T06:50:56;101568.72;;;8.46;100.00
24788;BME280;12883;52.662;5.196;2023-04-06T06:53:21;101591.84;;;8.60;100.00
24788;BME280;12883;52.662;5.196;2023-04-06T06:55:47;101582.28;;;8.59;100.00
24788;BME280;12883;52.662;5.196;2023-04-06T06:58:14;101582.94;;;8.61;100.00
24788;BME280;12883;52.662;5.196;2023-04-06T07:00:39;101585.06;;;8.66;100.00
24788;BME280;12883;52.662;5.196;2023-04-06T07:03:05;101590.19;;;8.75;100.00
24788;BME280;12883;52.662;5.196;2023-04-06T07:05:30;101576.94;;;8.83;100.00
24788;BME280;12883;52.662;5.196;2023-04-06T07:07:56;101573.66;;;8.73;100.00
24788;BME280;12883;52.662;5.196;2023-04-06T07:10:21;101587.34;;;8.85;100.00
24788;BME280;12883;52.662;5.196;2023-04-06T07:12:47;101585.03;;;8.90;100.00
24788;BME280;12883;52.662;5.196;2023-04-06T07:15:12;101581.34;;;8.99;100.00
24788;BME280;12883;52.662;5.196;2023-04-06T07:17:38;101576.75;;;8.93;100.00
24788;BME280;12883;52.662;5.196;2023-04-06T07:20:03;101580.91;;;8.87;100.00
24788;BME280;12883;52.662;5.196;2023-04-06T07:22:29;101576.72;;;9.01;100.00
24788;BME280;12883;52.662;5.196;2023-04-06T07:24:55;101553.63;;;8.79;100.00
24788;BME280;12883;52.662;5.196;2023-04-06T07:27:21;101581.28;;;9.15;100.00
24788;BME280;12883;52.662;5.196;2023-04-06T07:29:46;101576.19;;;9.05;100.00
24788;BME280;12883;52.662;5.196;2023-04-06T07:32:12;101569.41;;;9.11;100.00
24788;BME280;12883;52.662;5.196;2023-04-06T07:34:37;101571.19;;;9.18;100.00
24788;BME280;12883;52.662;5.196;2023-04-06T07:37:03;101558.16;;;9.17;100.00
24788;BME280;12883;52.662;5.196;2023-04-06T07:39:28;101572.00;;;9.27;100.00
24788;BME280;12883;52.662;5.196;2023-04-06T07:41:54;101577.44;;;9.25;100.00
24788;BME280;12883;52.662;5.196;2023-04-06T07:44:19;101564.88;;;9.27;100.00
24788;BME280;12883;52.662;5.196;2023-04-06T07:46:44;101563.88;;;9.28;100.00
24788;BME280;12883;52.662;5.196;2023-04-06T07:49:10;101566.06;;;9.25;100.00
24788;BME280;12883;52.662;5.196;2023-04-06T07:51:37;101582.06;;;9.31;100.00
24788;BME280;12883;52.662;5.196;2023-04-06T07:54:03;101571.81;;;9.28;100.00
24788;BME280;12883;52.662;5.196;2023-04-06T07:56:29;101573.47;;;9.29;100.00
24788;BME280;12883;52.662;5.196;2023-04-06T07:58:54;101572.78;;;9.35;100.00
24788;BME280;12883;52.662;5.196;2023-04-06T08:01:21;101569.75;;;9.46;100.00
24788;BME280;12883;52.662;5.196;2023-04-06T08:03:47;101564.75;;;9.51;100.00
24788;BME280;12883;52.662;5.196;2023-04-06T08:06:12;101561.56;;;9.55;100.00
24788;BME280;12883;52.662;5.196;2023-04-06T08:08:37;101552.47;;;9.58;100.00
24788;BME280;12883;52.662;5.196;2023-04-06T08:11:03;101571.47;;;9.61;100.00
24788;BME280;12883;52.662;5.196;2023-04-06T08:13:28;101559.41;;;9.59;100.00
24788;BME280;12883;52.662;5.196;2023-04-06T08:15:53;101560.94;;;9.53;100.00
24788;BME280;12883;52.662;5.196;2023-04-06T08:18:19;101561.72;;;9.62;100.00
24788;BME280;12883;52.662;5.196;2023-04-06T08:20:44;101558.00;;;9.71;100.00
24788;BME280;12883;52.662;5.196;2023-04-06T08:23:10;101561.03;;;9.68;100.00
24788;BME280;12883;52.662;5.196;2023-04-06T08:25:36;101557.66;;;9.74;100.00
24788;BME280;12883;52.662;5.196;2023-04-06T08:28:02;101564.16;;;9.71;100.00
24788;BME280;12883;52.662;5.196;2023-04-06T08:30:29;101557.78;;;9.80;100.00
24788;BME280;12883;52.662;5.196;2023-04-06T08:32:54;101551.00;;;9.78;100.00
24788;BME280;12883;52.662;5.196;2023-04-06T08:35:20;101572.53;;;9.83;100.00
24788;BME280;12883;52.662;5.196;2023-04-06T08:37:45;101564.16;;;9.94;100.00
24788;BME280;12883;52.662;5.196;2023-04-06T08:40:12;101568.16;;;9.90;100.00
24788;BME280;12883;52.662;5.196;2023-04-06T08:42:44;101560.97;;;10.06;100.00
24788;BME280;12883;52.662;5.196;2023-04-06T08:45:16;101562.13;;;10.04;100.00
24788;BME280;12883;52.662;5.196;2023-04-06T08:47:42;101518.75;;;9.97;100.00
24788;BME280;12883;52.662;5.196;2023-04-06T08:50:08;101559.09;;;10.29;100.00
24788;BME280;12883;52.662;5.196;2023-04-06T08:52:33;101557.38;;;10.36;100.00
24788;BME280;12883;52.662;5.196;2023-04-06T08:55:00;101557.47;;;10.43;100.00
24788;BME280;12883;52.662;5.196;2023-04-06T08:57:26;101553.31;;;10.48;100.00
24788;BME280;12883;52.662;5.196;2023-04-06T08:59:52;101565.91;;;10.46;100.00
24788;BME280;12883;52.662;5.196;2023-04-06T09:02:19;101562.44;;;10.46;100.00
24788;BME280;12883;52.662;5.196;2023-04-06T09:04:49;101554.41;;;10.54;100.00
24788;BME280;12883;52.662;5.196;2023-04-06T09:07:17;101566.31;;;10.58;100.00
24788;BME280;12883;52.662;5.196;2023-04-06T09:09:42;101552.22;;;10.57;100.00
24788;BME280;12883;52.662;5.196;2023-04-06T09:12:26;101557.59;;;10.64;100.00
24788;BME280;12883;52.662;5.196;2023-04-06T09:14:52;101562.84;;;10.72;100.00
24788;BME280;12883;52.662;5.196;2023-04-06T09:17:21;101555.88;;;10.71;100.00
24788;BME280;12883;52.662;5.196;2023-04-06T09:19:47;101556.88;;;10.70;100.00
24788;BME280;12883;52.662;5.196;2023-04-06T09:22:12;101562.00;;;10.71;100.00
24788;BME280;12883;52.662;5.196;2023-04-06T09:27:06;101550.66;;;10.92;100.00
24788;BME280;12883;52.662;5.196;2023-04-06T09:29:32;101547.19;;;10.91;100.00
24788;BME280;12883;52.662;5.196;2023-04-06T09:32:08;101545.53;;;11.05;100.00
24788;BME280;12883;52.662;5.196;2023-04-06T09:34:38;101490.72;;;10.68;100.00
24788;BME280;12883;52.662;5.196;2023-04-06T09:37:13;101555.53;;;11.03;100.00
24788;BME280;12883;52.662;5.196;2023-04-06T09:39:39;101538.75;;;11.17;100.00
24788;BME280;12883;52.662;5.196;2023-04-06T09:42:05;101550.28;;;11.24;100.00
24788;BME280;12883;52.662;5.196;2023-04-06T09:44:30;101549.81;;;11.35;100.00
24788;BME280;12883;52.662;5.196;2023-04-06T09:46:55;101549.44;;;11.38;100.00
24788;BME280;12883;52.662;5.196;2023-04-06T09:49:21;101544.31;;;11.36;100.00
24788;BME280;12883;52.662;5.196;2023-04-06T09:51:56;101547.63;;;11.38;100.00
24788;BME280;12883;52.662;5.196;2023-04-06T09:54:22;101543.13;;;11.39;100.00
24788;BME280;12883;52.662;5.196;2023-04-06T09:57:00;101537.06;;;11.45;100.00
24788;BME280;12883;52.662;5.196;2023-04-06T10:01:53;101535.41;;;11.44;100.00
24788;BME280;12883;52.662;5.196;2023-04-06T10:07:02;101541.25;;;11.54;100.00
24788;BME280;12883;52.662;5.196;2023-04-06T10:09:28;101548.84;;;11.57;100.00
24788;BME280;12883;52.662;5.196;2023-04-06T10:12:04;101545.88;;;11.45;100.00
24788;BME280;12883;52.662;5.196;2023-04-06T10:14:32;101548.03;;;11.56;100.00
24788;BME280;12883;52.662;5.196;2023-04-06T10:16:58;101545.31;;;11.50;100.00
24788;BME280;12883;52.662;5.196;2023-04-06T10:19:26;101545.94;;;11.66;100.00
24788;BME280;12883;52.662;5.196;2023-04-06T10:21:54;101540.03;;;11.56;100.00
24788;BME280;12883;52.662;5.196;2023-04-06T10:24:23;101540.97;;;11.63;100.00
24788;BME280;12883;52.662;5.196;2023-04-06T10:27:00;101528.34;;;11.51;100.00
24788;BME280;12883;52.662;5.196;2023-04-06T10:29:26;101540.94;;;11.78;100.00
24788;BME280;12883;52.662;5.196;2023-04-06T10:31:52;101549.66;;;11.72;100.00
24788;BME280;12883;52.662;5.196;2023-04-06T10:34:17;101548.22;;;11.90;100.00
24788;BME280;12883;52.662;5.196;2023-04-06T10:36:44;101556.75;;;11.86;100.00
24788;BME280;12883;52.662;5.196;2023-04-06T10:39:09;101549.38;;;12.02;100.00
24788;BME280;12883;52.662;5.196;2023-04-06T10:41:40;101538.91;;;12.01;100.00
24788;BME280;12883;52.662;5.196;2023-04-06T10:44:06;101499.28;;;11.64;100.00
24788;BME280;12883;52.662;5.196;2023-04-06T10:46:33;101543.72;;;12.12;100.00
24788;BME280;12883;52.662;5.196;2023-04-06T10:49:10;101539.44;;;12.11;100.00
24788;BME280;12883;52.662;5.196;2023-04-06T10:51:38;101528.09;;;12.02;100.00
24788;BME280;12883;52.662;5.196;2023-04-06T10:54:03;101543.59;;;11.99;100.00
24788;BME280;12883;52.662;5.196;2023-04-06T10:56:30;101532.38;;;12.03;100.00
24788;BME280;12883;52.662;5.196;2023-04-06T10:58:59;101527.38;;;11.94;100.00
24788;BME280;12883;52.662;5.196;2023-04-06T11:01:25;101529.53;;;11.84;100.00
24788;BME280;12883;52.662;5.196;2023-04-06T11:03:54;101515.06;;;11.86;100.00
24788;BME280;12883;52.662;5.196;2023-04-06T11:06:28;101519.13;;;11.89;100.00
24788;BME280;12883;52.662;5.196;2023-04-06T11:08:56;101524.22;;;11.84;100.00
24788;BME280;12883;52.662;5.196;2023-04-06T11:11:24;101524.09;;;11.92;100.00
24788;BME280;12883;52.662;5.196;2023-04-06T11:13:56;101520.38;;;11.86;100.00
24788;BME280;12883;52.662;5.196;2023-04-06T11:18:48;101510.53;;;11.87;100.00
24788;BME280;12883;52.662;5.196;2023-04-06T11:21:14;101506.06;;;11.87;100.00
24788;BME280;12883;52.662;5.196;2023-04-06T11:23:39;101509.16;;;11.91;100.00
24788;BME280;12883;52.662;5.196;2023-04-06T11:26:13;101508.59;;;11.95;100.00
24788;BME280;12883;52.662;5.196;2023-04-06T11:28:42;101468.63;;;11.68;100.00
24788;BME280;12883;52.662;5.196;2023-04-06T11:31:11;101508.25;;;12.05;100.00
24788;BME280;12883;52.662;5.196;2023-04-06T11:33:37;101507.75;;;11.74;100.00
24788;BME280;12883;52.662;5.196;2023-04-06T11:36:06;101501.06;;;11.78;100.00
24788;BME280;12883;52.662;5.196;2023-04-06T11:38:32;101497.13;;;11.74;100.00
24788;BME280;12883;52.662;5.196;2023-04-06T11:40:57;101504.06;;;11.75;100.00
24788;BME280;12883;52.662;5.196;2023-04-06T11:43:30;101512.75;;;11.62;100.00
24788;BME280;12883;52.662;5.196;2023-04-06T11:46:03;101494.72;;;11.58;100.00
24788;BME280;12883;52.662;5.196;2023-04-06T11:48:29;101492.78;;;11.52;100.00
24788;BME280;12883;52.662;5.196;2023-04-06T11:50:56;101487.69;;;11.36;100.00
24788;BME280;12883;52.662;5.196;2023-04-06T11:53:22;101478.31;;;11.40;100.00
24788;BME280;12883;52.662;5.196;2023-04-06T11:55:48;101488.84;;;11.27;100.00
24788;BME280;12883;52.662;5.196;2023-04-06T11:58:13;101477.25;;;11.34;100.00
24788;BME280;12883;52.662;5.196;2023-04-06T12:00:38;101476.88;;;11.37;100.00
24788;BME280;12883;52.662;5.196;2023-04-06T12:03:04;101477.19;;;11.28;100.00
24788;BME280;12883;52.662;5.196;2023-04-06T12:05:29;101469.56;;;11.25;100.00
24788;BME280;12883;52.662;5.196;2023-04-06T12:07:55;101475.78;;;11.32;100.00
24788;BME280;12883;52.662;5.196;2023-04-06T12:10:20;101472.00;;;11.20;100.00
24788;BME280;12883;52.662;5.196;2023-04-06T12:12:46;101486.25;;;11.19;100.00
24788;BME280;12883;52.662;5.196;2023-04-06T12:15:11;101463.47;;;11.10;100.00
24788;BME280;12883;52.662;5.196;2023-04-06T12:17:36;101457.44;;;11.16;100.00
24788;BME280;12883;52.662;5.196;2023-04-06T12:20:02;101466.56;;;11.28;100.00
24788;BME280;12883;52.662;5.196;2023-04-06T12:22:28;101459.59;;;11.27;100.00
24788;BME280;12883;52.662;5.196;2023-04-06T12:24:53;101453.84;;;11.23;100.00
24788;BME280;12883;52.662;5.196;2023-04-06T12:27:19;101439.59;;;10.95;100.00
24788;BME280;12883;52.662;5.196;2023-04-06T12:29:45;101458.63;;;11.13;100.00
24788;BME280;12883;52.662;5.196;2023-04-06T12:32:10;101460.09;;;11.01;100.00
24788;BME280;12883;52.662;5.196;2023-04-06T12:34:37;101469.81;;;11.09;100.00
24788;BME280;12883;52.662;5.196;2023-04-06T12:37:03;101444.16;;;11.01;100.00
24788;BME280;12883;52.662;5.196;2023-04-06T12:39:28;101453.88;;;10.94;100.00
24788;BME280;12883;52.662;5.196;2023-04-06T12:41:53;101443.19;;;10.88;100.00
24788;BME280;12883;52.662;5.196;2023-04-06T12:44:20;101448.56;;;10.94;100.00
24788;BME280;12883;52.662;5.196;2023-04-06T12:46:45;101460.13;;;10.87;100.00
24788;BME280;12883;52.662;5.196;2023-04-06T12:49:11;101449.63;;;10.79;100.00
24788;BME280;12883;52.662;5.196;2023-04-06T12:51:37;101440.38;;;10.75;100.00